createdAt,value
2022-11-08T00:02:26.162Z,10.43
2022-11-08T00:04:53.079Z,10.63
2022-11-08T00:07:38.512Z,10.97
2022-11-08T00:10:24.946Z,10.17
2022-11-08T00:13:10.707Z,11.03
2022-11-08T00:15:38.986Z,10.60
2022-11-08T00:18:07.548Z,10.67
2022-11-08T00:20:34.730Z,10.97
2022-11-08T00:23:02.155Z,11.20
2022-11-08T00:25:29.127Z,10.33
2022-11-08T00:27:57.211Z,10.80
2022-11-08T00:30:24.013Z,10.93
2022-11-08T00:32:51.167Z,11.20
2022-11-08T00:35:17.994Z,10.87
2022-11-08T00:37:45.193Z,10.60
2022-11-08T00:40:12.554Z,10.17
2022-11-08T00:42:41.007Z,9.43
2022-11-08T00:45:08.235Z,10.10
2022-11-08T00:47:35.367Z,9.87
2022-11-08T00:50:02.242Z,10.47
2022-11-08T00:52:29.356Z,10.10
2022-11-08T00:54:56.249Z,9.30
2022-11-08T00:57:35.853Z,9.90
2022-11-08T01:00:10.923Z,11.23
2022-11-08T01:02:38.148Z,9.90
2022-11-08T01:05:05.525Z,10.50
2022-11-08T01:07:34.031Z,10.03
2022-11-08T01:10:00.904Z,9.83
2022-11-08T01:12:28.075Z,9.90
2022-11-08T01:14:55.084Z,9.63
2022-11-08T01:17:22.378Z,9.57
2022-11-08T01:19:49.290Z,10.20
2022-11-08T01:22:16.503Z,9.90
2022-11-08T01:24:43.371Z,10.63
2022-11-08T01:27:10.627Z,9.10
2022-11-08T01:29:37.436Z,10.10
2022-11-08T01:32:04.725Z,9.73
2022-11-08T01:34:31.593Z,8.17
2022-11-08T01:36:58.734Z,9.40
2022-11-08T01:39:27.258Z,8.53
2022-11-08T01:41:54.465Z,9.03
2022-11-08T01:44:22.303Z,8.73
2022-11-08T01:46:49.525Z,9.47
2022-11-08T01:49:44.663Z,8.73
2022-11-08T01:52:20.824Z,8.57
2022-11-08T01:55:00.612Z,8.63
2022-11-08T01:57:53.353Z,8.77
2022-11-08T02:00:20.532Z,9.80
2022-11-08T02:02:55.477Z,9.07
2022-11-08T02:05:26.324Z,8.80
2022-11-08T02:07:55.238Z,9.13
2022-11-08T02:10:25.069Z,8.97
2022-11-08T02:12:54.494Z,8.83
2022-11-08T02:15:24.983Z,9.17
2022-11-08T02:17:53.910Z,9.17
2022-11-08T02:20:21.551Z,8.93
2022-11-08T02:23:14.864Z,9.40
2022-11-08T02:25:41.981Z,8.37
2022-11-08T02:28:09.128Z,8.43
2022-11-08T02:30:37.693Z,8.50
2022-11-08T02:33:23.844Z,8.60
2022-11-08T02:35:56.323Z,8.23
2022-11-08T02:38:26.806Z,8.60
2022-11-08T02:40:56.108Z,8.50
2022-11-08T02:43:24.316Z,8.67
2022-11-08T02:45:52.518Z,7.83
2022-11-08T02:48:20.702Z,8.17
2022-11-08T02:50:47.889Z,8.93
2022-11-08T02:53:15.695Z,8.67
2022-11-08T02:55:42.972Z,7.97
2022-11-08T02:58:11.157Z,8.43
2022-11-08T03:00:38.880Z,8.43
2022-11-08T03:03:06.319Z,8.33
2022-11-08T03:05:33.621Z,7.87
2022-11-08T03:08:00.759Z,9.10
2022-11-08T03:10:29.183Z,8.03
2022-11-08T03:13:01.288Z,7.53
2022-11-08T03:15:29.513Z,9.50
2022-11-08T03:17:57.307Z,7.53
2022-11-08T03:20:28.313Z,7.93
2022-11-08T03:23:02.912Z,8.13
2022-11-08T03:25:30.420Z,7.97
2022-11-08T03:28:08.436Z,8.17
2022-11-08T03:30:36.385Z,7.53
2022-11-08T03:33:04.821Z,7.20
2022-11-08T03:35:32.061Z,7.93
2022-11-08T03:37:59.190Z,7.80
2022-11-08T03:40:27.237Z,7.90
2022-11-08T03:42:57.527Z,8.00
2022-11-08T03:45:24.487Z,7.40
2022-11-08T03:47:51.600Z,6.90
2022-11-08T03:50:18.637Z,7.70
2022-11-08T03:52:50.980Z,6.60
2022-11-08T03:55:19.925Z,7.70
2022-11-08T03:57:49.204Z,7.53
2022-11-08T04:00:18.980Z,7.00
2022-11-08T04:02:46.379Z,7.23
2022-11-08T04:05:15.003Z,6.73
2022-11-08T04:07:43.232Z,6.90
2022-11-08T04:10:14.014Z,6.70
2022-11-08T04:13:02.969Z,6.80
2022-11-08T04:15:30.822Z,7.67
2022-11-08T04:18:18.445Z,6.90
2022-11-08T04:21:06.914Z,6.60
2022-11-08T04:23:36.540Z,6.73
2022-11-08T04:26:08.273Z,7.70
2022-11-08T04:28:37.152Z,7.13
2022-11-08T04:31:16.734Z,8.20
2022-11-08T04:33:44.004Z,7.30
2022-11-08T04:36:13.889Z,7.03
2022-11-08T04:38:41.147Z,6.97
2022-11-08T04:41:11.494Z,6.47
2022-11-08T04:43:38.825Z,6.43
2022-11-08T04:46:14.262Z,6.70
2022-11-08T04:48:42.406Z,7.17
2022-11-08T04:51:17.786Z,7.97
2022-11-08T04:53:45.576Z,6.63
2022-11-08T04:56:14.831Z,7.10
2022-11-08T04:58:47.578Z,7.27
2022-11-08T05:01:17.797Z,5.87
2022-11-08T05:03:46.506Z,6.30
2022-11-08T05:06:18.815Z,6.77
2022-11-08T05:08:46.558Z,6.80
2022-11-08T05:11:15.869Z,6.70
2022-11-08T05:13:43.730Z,6.63
2022-11-08T05:16:17.992Z,5.73
2022-11-08T05:18:45.448Z,6.00
2022-11-08T05:21:34.021Z,6.07
2022-11-08T05:24:02.371Z,6.47
2022-11-08T05:26:29.835Z,6.60
2022-11-08T05:28:56.997Z,7.23
2022-11-08T05:31:23.862Z,6.70
2022-11-08T05:33:52.890Z,6.37
2022-11-08T05:36:20.307Z,6.70
2022-11-08T05:38:47.482Z,7.30
2022-11-08T05:41:19.447Z,7.23
2022-11-08T05:43:49.285Z,6.50
2022-11-08T05:46:17.792Z,7.30
2022-11-08T05:48:46.937Z,6.63
2022-11-08T05:51:15.872Z,6.83
2022-11-08T05:53:43.060Z,7.13
2022-11-08T05:56:10.268Z,5.97
2022-11-08T05:58:37.740Z,6.13
2022-11-08T06:01:05.972Z,6.40
2022-11-08T06:03:33.827Z,6.43
2022-11-08T06:06:06.192Z,6.80
2022-11-08T06:08:33.650Z,8.53
2022-11-08T06:11:11.752Z,7.90
2022-11-08T06:13:39.788Z,6.60
2022-11-08T06:16:09.780Z,6.67
2022-11-08T06:18:38.097Z,6.87
2022-11-08T06:21:07.357Z,6.67
2022-11-08T06:23:34.927Z,6.87
2022-11-08T06:26:01.827Z,6.50
2022-11-08T06:28:29.097Z,7.10
2022-11-08T06:30:59.233Z,6.83
2022-11-08T06:33:26.493Z,7.43
2022-11-08T06:35:53.534Z,7.87
2022-11-08T06:38:21.026Z,7.13
2022-11-08T06:40:47.994Z,7.10
2022-11-08T06:43:19.550Z,6.80
2022-11-08T06:45:47.259Z,6.80
2022-11-08T06:48:14.406Z,7.27
2022-11-08T06:50:42.396Z,7.07
2022-11-08T06:53:12.564Z,6.77
2022-11-08T06:55:39.461Z,6.87
2022-11-08T06:58:06.994Z,6.40
2022-11-08T07:00:34.077Z,7.67
2022-11-08T07:03:03.623Z,8.07
2022-11-08T07:05:32.604Z,7.03
2022-11-08T07:08:01.136Z,7.07
2022-11-08T07:10:30.619Z,7.37
2022-11-08T07:13:06.590Z,6.57
2022-11-08T07:15:36.791Z,7.30
2022-11-08T07:18:09.608Z,6.50
2022-11-08T07:20:41.684Z,6.57
2022-11-08T07:23:10.737Z,5.67
2022-11-08T07:25:45.513Z,6.90
2022-11-08T07:28:17.720Z,7.20
2022-11-08T07:30:46.264Z,6.73
2022-11-08T07:33:14.504Z,5.53
2022-11-08T07:35:42.166Z,5.70
2022-11-08T07:38:09.315Z,5.60
2022-11-08T07:40:36.239Z,6.20
2022-11-08T07:43:12.576Z,6.33
2022-11-08T07:45:41.365Z,5.87
2022-11-08T07:48:12.247Z,5.53
2022-11-08T07:50:59.300Z,6.40
2022-11-08T07:53:30.411Z,5.87
2022-11-08T07:55:58.437Z,5.10
2022-11-08T07:58:53.215Z,5.80
2022-11-08T08:01:20.210Z,6.40
2022-11-08T08:03:47.332Z,6.10
2022-11-08T08:09:04.645Z,5.43
2022-11-08T08:11:33.802Z,5.40
2022-11-08T08:14:01.306Z,5.90
2022-11-08T08:16:39.344Z,5.17
2022-11-08T08:19:07.097Z,5.30
2022-11-08T08:21:33.997Z,5.20
2022-11-08T08:24:01.193Z,4.97
2022-11-08T08:26:28.574Z,5.35
2022-11-08T08:29:21.336Z,5.60
2022-11-08T08:31:48.556Z,5.13
2022-11-08T08:34:15.929Z,4.45
2022-11-08T08:36:58.924Z,5.07
2022-11-08T08:39:26.667Z,4.28
2022-11-08T08:41:54.262Z,4.65
2022-11-08T08:44:23.267Z,4.85
2022-11-08T08:47:15.487Z,5.07
2022-11-08T08:49:43.332Z,4.75
2022-11-08T08:52:10.928Z,5.90
2022-11-08T08:54:38.968Z,5.25
2022-11-08T08:57:31.535Z,5.57
2022-11-08T09:03:13.303Z,4.78
2022-11-08T09:05:44.202Z,5.35
2022-11-08T09:10:59.114Z,5.03
2022-11-08T09:13:28.520Z,4.45
2022-11-08T09:15:56.620Z,5.03
2022-11-08T09:18:49.634Z,4.95
2022-11-08T09:21:17.410Z,4.72
2022-11-08T09:23:44.390Z,4.35
2022-11-08T09:26:12.473Z,4.95
2022-11-08T09:28:59.661Z,5.07
2022-11-08T09:31:26.979Z,4.47
2022-11-08T09:33:54.026Z,4.90
2022-11-08T09:40:03.512Z,5.22
2022-11-08T09:42:40.582Z,5.80
2022-11-08T09:45:16.153Z,5.20
2022-11-08T09:48:17.233Z,4.72
2022-11-08T09:50:46.955Z,5.10
2022-11-08T09:53:36.676Z,4.70
2022-11-08T09:56:37.134Z,5.07
2022-11-08T09:59:43.074Z,5.60
2022-11-08T10:02:43.737Z,5.47
2022-11-08T10:05:16.788Z,4.95
2022-11-08T10:08:12.807Z,5.65
2022-11-08T10:10:58.503Z,5.20
2022-11-08T10:14:03.310Z,4.90
2022-11-08T10:17:10.885Z,4.57
2022-11-08T10:19:49.155Z,4.50
2022-11-08T10:22:29.531Z,4.72
2022-11-08T10:25:26.839Z,4.50
2022-11-08T10:27:56.431Z,5.05
2022-11-08T10:30:45.472Z,4.50
2022-11-08T10:33:25.049Z,5.68
2022-11-08T10:36:29.270Z,6.55
2022-11-08T10:39:11.621Z,5.00
2022-11-08T10:42:00.085Z,5.35
2022-11-08T10:44:28.553Z,4.38
2022-11-08T10:47:07.621Z,4.35
2022-11-08T10:49:57.296Z,5.00
2022-11-08T10:52:39.446Z,5.38
2022-11-08T10:55:08.826Z,5.07
2022-11-08T10:58:01.469Z,5.18
2022-11-08T11:00:31.412Z,5.43
2022-11-08T11:03:29.011Z,4.68
2022-11-08T11:06:04.121Z,4.72
2022-11-08T11:08:31.737Z,4.57
2022-11-08T11:11:38.369Z,4.45
2022-11-08T11:14:22.476Z,4.57
2022-11-08T11:17:19.170Z,4.63
2022-11-08T11:19:54.926Z,4.63
2022-11-08T11:22:47.388Z,4.18
2022-11-08T11:25:17.322Z,4.15
2022-11-08T11:28:11.272Z,4.10
2022-11-08T11:30:38.332Z,4.15
2022-11-08T11:33:08.875Z,3.92
2022-11-08T11:36:13.486Z,4.00
2022-11-08T11:38:59.646Z,4.90
2022-11-08T11:42:39.310Z,4.40
2022-11-08T11:45:36.798Z,4.22
2022-11-08T11:48:29.545Z,4.05
2022-11-08T11:50:58.262Z,5.22
2022-11-08T11:53:28.632Z,4.68
2022-11-08T11:56:54.060Z,4.43
2022-11-08T11:59:51.724Z,3.83
2022-11-08T12:05:55.486Z,4.55
2022-11-08T12:08:53.525Z,4.85
2022-11-08T12:11:36.050Z,4.57
2022-11-08T12:14:24.326Z,4.90
2022-11-08T12:16:59.939Z,4.60
2022-11-08T12:20:01.748Z,5.00
2022-11-08T12:22:38.081Z,4.65
2022-11-08T12:25:49.102Z,4.15
2022-11-08T12:29:18.210Z,4.88
2022-11-08T12:31:58.809Z,5.22
2022-11-08T12:35:01.068Z,5.13
2022-11-08T12:38:01.453Z,6.68
2022-11-08T12:40:51.461Z,6.32
2022-11-08T12:43:41.031Z,6.13
2022-11-08T12:46:13.669Z,6.35
2022-11-08T12:49:28.098Z,6.45
2022-11-08T12:53:01.222Z,6.60
2022-11-08T12:55:36.271Z,6.05
2022-11-08T12:58:34.866Z,6.50
2022-11-08T13:01:12.584Z,5.80
2022-11-08T13:04:18.989Z,6.53
2022-11-08T13:06:56.372Z,5.70
2022-11-08T13:10:21.713Z,5.65
2022-11-08T13:13:20.316Z,7.40
2022-11-08T13:16:23.272Z,6.10
2022-11-08T13:18:50.424Z,6.10
2022-11-08T13:24:43.335Z,6.47
2022-11-08T13:27:41.324Z,5.22
2022-11-08T13:30:11.304Z,5.63
2022-11-08T13:32:53.805Z,5.78
2022-11-08T13:36:37.723Z,5.78
2022-11-08T13:39:35.221Z,5.93
2022-11-08T13:42:29.296Z,5.50
2022-11-08T13:44:56.673Z,5.95
2022-11-08T13:48:13.613Z,6.03
2022-11-08T13:50:54.422Z,4.72
2022-11-08T13:53:53.002Z,5.18
2022-11-08T13:56:27.238Z,6.07
2022-11-08T13:59:29.235Z,6.40
2022-11-08T14:02:51.175Z,7.75
2022-11-08T14:05:24.769Z,6.43
2022-11-08T14:08:19.998Z,6.18
2022-11-08T14:10:59.782Z,6.18
2022-11-08T14:13:58.233Z,8.02
2022-11-08T14:52:22.914Z,5.90
2022-11-08T14:55:02.226Z,6.03
2022-11-08T14:57:41.035Z,6.97
2022-11-08T15:00:27.149Z,6.27
2022-11-08T15:03:01.009Z,6.77
2022-11-08T15:05:42.728Z,6.03
2022-11-08T15:08:23.030Z,6.40
2022-11-08T15:11:06.600Z,7.20
2022-11-08T15:13:48.952Z,6.73
2022-11-08T15:16:17.216Z,7.40
2022-11-08T15:19:27.222Z,7.47
2022-11-08T15:22:32.905Z,7.60
2022-11-08T15:25:33.343Z,8.40
2022-11-08T15:28:31.922Z,12.23
2022-11-08T15:31:16.269Z,11.27
2022-11-08T15:33:53.176Z,13.77
2022-11-08T15:36:37.447Z,10.40
2022-11-08T15:39:25.600Z,11.97
2022-11-08T15:42:16.688Z,10.37
2022-11-08T15:45:05.575Z,9.83
2022-11-08T15:47:44.598Z,11.00
2022-11-08T15:50:30.382Z,10.17
2022-11-08T15:53:06.298Z,9.23
2022-11-08T15:55:55.809Z,10.57
2022-11-08T15:58:38.931Z,12.27
2022-11-08T16:01:20.133Z,11.80
2022-11-08T16:03:54.852Z,13.03
2022-11-08T16:06:33.946Z,15.53
2022-11-08T16:09:09.348Z,13.70
2022-11-08T16:11:47.069Z,15.07
2022-11-08T16:14:28.250Z,15.10
2022-11-08T16:17:15.378Z,14.33
2022-11-08T16:19:59.687Z,15.77
2022-11-08T16:22:42.447Z,17.27
2022-11-08T16:25:17.889Z,19.50
2022-11-08T16:28:20.694Z,17.67
2022-11-08T16:30:54.640Z,20.20
2022-11-08T16:33:48.951Z,17.43
2022-11-08T16:36:19.181Z,25.73
2022-11-08T16:38:52.035Z,21.73
2022-11-08T16:41:20.302Z,23.73
2022-11-08T16:43:48.408Z,20.67
2022-11-08T16:46:15.802Z,26.87
2022-11-08T16:48:49.714Z,19.70
2022-11-08T16:51:19.630Z,23.03
2022-11-08T16:53:48.275Z,19.17
2022-11-08T16:56:15.927Z,17.60
2022-11-08T16:58:43.237Z,17.27
2022-11-08T17:01:16.252Z,17.43
2022-11-08T17:03:43.405Z,16.20
2022-11-08T17:06:15.892Z,16.60
2022-11-08T17:08:43.046Z,17.70
2022-11-08T17:11:16.312Z,19.27
2022-11-08T17:13:43.698Z,18.47
2022-11-08T17:16:14.579Z,16.23
2022-11-08T17:18:42.016Z,15.10
2022-11-08T17:21:38.263Z,14.60
2022-11-08T17:23:57.744Z,15.00
2022-11-08T17:26:24.538Z,15.63
2022-11-08T17:28:55.728Z,16.37
2022-11-08T17:31:22.667Z,13.73
2022-11-08T17:33:49.849Z,14.83
2022-11-08T17:36:16.871Z,14.23
2022-11-08T17:38:44.717Z,14.07
2022-11-08T17:41:13.991Z,13.67
2022-11-08T17:43:42.366Z,14.53
2022-11-08T17:46:10.786Z,14.17
2022-11-08T17:48:39.124Z,14.13
2022-11-08T17:51:06.270Z,13.60
2022-11-08T17:53:34.382Z,13.93
2022-11-08T17:56:04.364Z,14.10
2022-11-08T17:58:34.689Z,12.00
2022-11-08T18:01:04.212Z,12.43
2022-11-08T18:03:32.481Z,12.83
2022-11-08T18:06:05.190Z,11.47
2022-11-08T18:08:34.176Z,12.00
2022-11-08T18:11:02.234Z,12.40
2022-11-08T18:13:30.701Z,11.33
2022-11-08T18:16:12.609Z,12.00
2022-11-08T18:18:40.278Z,11.63
2022-11-08T18:21:08.247Z,12.83
2022-11-08T18:23:36.069Z,11.40
2022-11-08T18:26:02.999Z,13.70
2022-11-08T18:28:30.506Z,12.13
2022-11-08T18:31:04.276Z,11.97
2022-11-08T18:33:31.540Z,12.47
2022-11-08T18:36:06.053Z,14.13
2022-11-08T18:38:35.540Z,13.80
2022-11-08T18:41:03.371Z,13.83
2022-11-08T18:43:30.650Z,13.13
2022-11-08T18:46:02.367Z,13.27
2022-11-08T18:48:29.940Z,13.23
2022-11-08T18:50:56.820Z,14.23
2022-11-08T18:53:24.048Z,13.27
2022-11-08T18:55:50.920Z,14.20
2022-11-08T18:58:19.722Z,13.87
2022-11-08T19:00:46.690Z,14.87
2022-11-08T19:03:13.849Z,14.60
2022-11-08T19:05:43.463Z,13.73
2022-11-08T19:08:10.598Z,14.27
2022-11-08T19:10:37.668Z,15.63
2022-11-08T19:13:04.787Z,15.87
2022-11-08T19:15:31.723Z,15.77
2022-11-08T19:17:58.891Z,15.83
2022-11-08T19:20:26.033Z,17.27
2022-11-08T19:22:54.871Z,15.77
2022-11-08T19:25:21.774Z,18.23
2022-11-08T19:27:48.930Z,18.60
2022-11-08T19:30:15.750Z,18.47
2022-11-08T19:32:42.966Z,18.23
2022-11-08T19:35:09.985Z,20.97
2022-11-08T19:37:37.192Z,18.63
2022-11-08T19:40:04.361Z,20.60
2022-11-08T19:42:31.495Z,22.93
2022-11-08T19:44:58.378Z,19.73
2022-11-08T19:47:25.493Z,18.37
2022-11-08T19:49:52.338Z,18.50
2022-11-08T19:52:19.806Z,18.60
2022-11-08T19:54:47.081Z,19.20
2022-11-08T19:57:14.173Z,17.50
2022-11-08T19:59:41.039Z,16.53
2022-11-08T20:02:09.223Z,16.97
2022-11-08T20:04:36.491Z,15.70
2022-11-08T20:07:03.457Z,17.90
2022-11-08T20:09:31.149Z,16.33
2022-11-08T20:11:58.433Z,17.27
2022-11-08T20:14:25.679Z,16.40
2022-11-08T20:16:54.011Z,16.77
2022-11-08T20:19:21.550Z,15.53
2022-11-08T20:21:48.792Z,15.80
2022-11-08T20:24:16.729Z,16.43
2022-11-08T20:26:43.964Z,14.97
2022-11-08T20:29:11.502Z,16.60
2022-11-08T20:31:39.151Z,15.63
2022-11-08T20:34:10.224Z,17.23
2022-11-08T20:36:37.787Z,15.47
2022-11-08T20:39:07.610Z,16.63
2022-11-08T20:41:37.248Z,16.47
2022-11-08T20:44:06.685Z,15.77
2022-11-08T20:46:34.595Z,17.13
2022-11-08T20:49:02.550Z,17.37
2022-11-08T20:51:30.649Z,16.90
2022-11-08T20:53:59.463Z,16.90
2022-11-08T20:56:27.366Z,16.87
2022-11-08T20:58:54.768Z,16.47
2022-11-08T21:01:25.792Z,17.33
2022-11-08T21:03:53.199Z,17.57
2022-11-08T21:06:25.962Z,16.90
2022-11-08T21:08:59.815Z,16.33
2022-11-08T21:11:30.456Z,16.23
2022-11-08T21:13:57.889Z,17.17
2022-11-08T21:16:30.449Z,18.03
2022-11-08T21:18:58.526Z,17.33
2022-11-08T21:21:26.521Z,17.30
2022-11-08T21:23:54.909Z,16.47
2022-11-08T21:26:22.975Z,17.50
2022-11-08T21:28:51.008Z,18.40
2022-11-08T21:31:17.989Z,17.03
2022-11-08T21:33:45.104Z,18.63
2022-11-08T21:36:12.963Z,17.70
2022-11-08T21:38:40.560Z,16.67
2022-11-08T21:41:09.664Z,17.07
2022-11-08T21:43:45.269Z,16.40
2022-11-08T21:46:14.556Z,16.67
2022-11-08T21:48:41.910Z,16.27
2022-11-08T21:51:08.915Z,17.87
2022-11-08T21:53:40.845Z,18.03
2022-11-08T21:56:12.564Z,16.27
2022-11-08T21:58:39.674Z,17.83
2022-11-08T22:01:07.012Z,17.43
2022-11-08T22:03:34.638Z,16.70
2022-11-08T22:06:02.179Z,18.10
2022-11-08T22:08:29.420Z,18.73
2022-11-08T22:10:56.338Z,18.07
2022-11-08T22:13:23.463Z,19.00
2022-11-08T22:15:50.414Z,18.17
2022-11-08T22:18:26.351Z,19.03
2022-11-08T22:21:22.678Z,19.57
2022-11-08T22:23:49.866Z,19.07
2022-11-08T22:26:16.762Z,19.80
2022-11-08T22:28:43.675Z,19.50
2022-11-08T22:31:10.832Z,19.97
2022-11-08T22:33:37.657Z,19.77
2022-11-08T22:36:04.915Z,20.47
2022-11-08T22:38:31.791Z,20.47
2022-11-08T22:40:58.892Z,20.53
2022-11-08T22:43:25.787Z,18.90
2022-11-08T22:45:52.922Z,21.20
2022-11-08T22:48:19.940Z,19.87
2022-11-08T22:50:47.450Z,20.27
2022-11-08T22:53:14.305Z,20.90
2022-11-08T22:55:41.475Z,21.30
2022-11-08T22:58:09.351Z,21.70
2022-11-08T23:00:36.441Z,21.93
2022-11-08T23:03:03.513Z,22.70
2022-11-08T23:05:31.399Z,23.93
2022-11-08T23:07:58.246Z,24.17
2022-11-08T23:10:25.393Z,25.40
2022-11-08T23:13:10.757Z,25.30
2022-11-08T23:15:56.382Z,25.37
2022-11-08T23:18:24.956Z,27.73
2022-11-08T23:21:13.300Z,27.47
2022-11-08T23:23:58.632Z,26.43
2022-11-08T23:26:44.835Z,27.73
2022-11-08T23:29:30.801Z,26.83
2022-11-08T23:31:57.936Z,28.97
2022-11-08T23:34:24.771Z,28.43
2022-11-08T23:36:51.881Z,28.47
2022-11-08T23:39:18.789Z,28.83
2022-11-08T23:42:04.202Z,29.13
2022-11-08T23:44:31.091Z,29.20
2022-11-08T23:47:00.837Z,29.47
2022-11-08T23:49:28.087Z,28.13
2022-11-08T23:51:55.255Z,28.20
2022-11-08T23:54:22.163Z,30.00
2022-11-08T23:56:49.460Z,29.87
2022-11-08T23:59:16.292Z,29.17
